Aérodrome :
LOGIN :

S'inscrire | Disclaimer

   EN    FR    IT 

 










Légende :    VFR   VFR Marginal   IFR   IFR Intensif   IFR Très Intensif
Visi : 
Plafond : 
>= 8 km
>= 3000ft
5 à 8 km
1000 à 3000 ft
1500m à 5 km
500 à 1000 ft
800 à 1500m
200 à 500 ft
< 800m
< 200 ft
Symboles :   Orages  Brouillard  Fortes neiges  Fortes précipitations  Vent > 20 kt
SIGMETs :   Divers  Orages  Givrage  Turbulence  Onde Orograph.  Cendres Volcan.







- Altitude de l'aérodrome : 1058 ft
- Code IATA : SCN


EDDR - Saarbrücken

DERNIER METAR :
  • 242120Z 30006KT 9999 BKN044 07/03 Q1024

METARs EXPIRÉS :
  • 242050Z 30004KT 9999 BKN044 07/02 Q1024
  • 242020Z 31003KT CAVOK 07/03 Q1024
  • 241950Z 31003KT CAVOK 07/03 Q1024
  • 241920Z 34003KT CAVOK 08/03 Q1024

TAF TAF EDDR
Valide du 24 à 18h jusqu'au 25 à 18h UTC


241700Z 2418/2518 33007KT 9999 FEW035
BECMG 2503/2505 27007KT
BECMG 2508/2510 30012KT
BECMG 2510/2512 31015G25KT
PROB30
TEMPO 2511/2517 31020G30KT SHRA BKN035CB
BECMG 2516/2518 30010KT
Pas de NOTAMs connus pour ce terrain.



MET'MAP, la Météo Aéronautique d'un coup d'oeil ! - Copyright ORBIFLY Décembre 2007 - Disclaimer

ORBIFLY MET'MAP TEAM :

Programmation & Développement : Alexandra Zaïnal
Conception & Développement : Baudouin d'Aumeries
Co-Programmation & Développement : Marc-Olivier Méhu
Soutien technique & logistique : Manuel Goepfert

Contact : metmap@orbifly.com




SOURCES & CREDITS :

   NOAA